createdAt,value
2018-07-20T00:02:18.921Z,99.30
2018-07-20T00:04:47.507Z,99.90
2018-07-20T00:07:16.014Z,99.90
2018-07-20T00:09:44.495Z,99.90
2018-07-20T00:12:12.946Z,99.90
2018-07-20T00:14:41.432Z,99.90
2018-07-20T00:17:09.906Z,99.90
2018-07-20T00:19:38.430Z,99.90
2018-07-20T00:22:07.149Z,99.90
2018-07-20T00:24:35.656Z,99.90
2018-07-20T00:27:04.749Z,99.90
2018-07-20T00:29:33.466Z,99.90
2018-07-20T00:32:01.934Z,99.90
2018-07-20T00:34:30.390Z,99.90
2018-07-20T00:36:58.782Z,99.90
2018-07-20T00:39:27.207Z,99.90
2018-07-20T00:41:55.710Z,99.90
2018-07-20T00:44:24.193Z,99.90
2018-07-20T00:46:52.738Z,99.90
2018-07-20T00:49:21.384Z,99.90
2018-07-20T00:51:49.812Z,99.90
2018-07-20T00:54:18.249Z,99.90
2018-07-20T00:56:46.838Z,99.90
2018-07-20T00:59:15.332Z,99.90
2018-07-20T01:01:43.806Z,99.90
2018-07-20T01:04:12.526Z,99.90
2018-07-20T01:09:10.139Z,99.90
2018-07-20T01:11:39.855Z,99.90
2018-07-20T01:14:08.327Z,99.90
2018-07-20T01:16:37.938Z,99.90
2018-07-20T01:19:06.413Z,99.90
2018-07-20T01:21:34.835Z,99.90
2018-07-20T01:24:03.318Z,99.90
2018-07-20T01:26:31.784Z,99.90
2018-07-20T01:29:00.339Z,99.90
2018-07-20T01:31:28.789Z,99.90
2018-07-20T01:33:57.256Z,99.90
2018-07-20T01:36:25.749Z,99.90
2018-07-20T01:38:54.970Z,99.90
2018-07-20T01:41:23.393Z,99.90
2018-07-20T01:43:51.882Z,99.90
2018-07-20T01:46:20.370Z,99.90
2018-07-20T01:48:48.905Z,99.90
2018-07-20T01:51:17.378Z,99.90
2018-07-20T01:53:45.862Z,99.90
2018-07-20T01:56:14.411Z,99.90
2018-07-20T01:58:43.291Z,99.90
2018-07-20T02:01:11.732Z,99.90
2018-07-20T02:03:40.891Z,99.90
2018-07-20T02:06:09.322Z,99.90
2018-07-20T02:08:37.865Z,99.90
2018-07-20T02:11:06.519Z,99.90
2018-07-20T02:13:34.962Z,99.90
2018-07-20T02:16:03.450Z,99.90
2018-07-20T02:18:32.078Z,99.90
2018-07-20T02:23:29.729Z,99.90
2018-07-20T02:25:58.197Z,99.90
2018-07-20T02:28:26.692Z,99.90
2018-07-20T02:30:55.136Z,99.90
2018-07-20T02:33:23.537Z,99.90
2018-07-20T02:35:51.991Z,99.90
2018-07-20T02:38:20.687Z,99.90
2018-07-20T02:40:49.143Z,99.90
2018-07-20T02:43:17.661Z,99.90
2018-07-20T02:45:46.109Z,99.90
2018-07-20T02:48:14.571Z,99.90
2018-07-20T02:50:43.061Z,99.90
2018-07-20T02:53:11.509Z,99.90
2018-07-20T02:55:40.044Z,99.90
2018-07-20T02:58:08.506Z,99.90
2018-07-20T03:00:37.010Z,99.90
2018-07-20T03:03:05.918Z,99.90
2018-07-20T03:05:34.421Z,99.90
2018-07-20T03:08:03.919Z,99.90
2018-07-20T03:10:32.401Z,99.90
2018-07-20T03:13:00.898Z,99.90
2018-07-20T03:15:29.433Z,99.90
2018-07-20T03:17:58.004Z,99.90
2018-07-20T03:20:26.531Z,99.90
2018-07-20T03:22:55.038Z,99.90
2018-07-20T03:27:52.148Z,99.90
2018-07-20T03:30:20.843Z,99.90
2018-07-20T03:32:49.434Z,99.90
2018-07-20T03:35:17.837Z,99.90
2018-07-20T03:37:46.335Z,99.90
2018-07-20T03:40:14.858Z,99.90
2018-07-20T03:42:43.301Z,99.90
2018-07-20T03:45:12.810Z,99.90
2018-07-20T03:47:41.297Z,99.90
2018-07-20T03:50:09.820Z,99.90
2018-07-20T03:52:38.483Z,99.90
2018-07-20T03:55:07.333Z,99.90
2018-07-20T03:57:35.797Z,99.90
2018-07-20T04:00:04.954Z,99.90
2018-07-20T04:02:33.516Z,99.90
2018-07-20T04:07:30.582Z,99.90
2018-07-20T04:09:59.320Z,99.90
2018-07-20T04:12:28.906Z,99.90
2018-07-20T04:14:57.647Z,99.90
2018-07-20T04:17:30.301Z,99.90
2018-07-20T04:19:58.783Z,99.90
2018-07-20T04:22:27.490Z,99.90
2018-07-20T04:24:55.951Z,99.90
2018-07-20T04:27:24.467Z,99.90
2018-07-20T04:29:53.039Z,99.90
2018-07-20T04:32:21.496Z,99.90
2018-07-20T04:34:50.088Z,99.90
2018-07-20T04:37:18.566Z,99.90
2018-07-20T04:39:47.040Z,99.90
2018-07-20T04:42:15.502Z,99.90
2018-07-20T04:44:44.836Z,99.90
2018-07-20T04:49:41.553Z,99.90
2018-07-20T04:52:10.262Z,99.90
2018-07-20T04:54:38.951Z,99.90
2018-07-20T04:57:07.511Z,99.90
2018-07-20T04:59:36.094Z,99.90
2018-07-20T05:02:04.625Z,99.90
2018-07-20T05:04:33.116Z,99.90
2018-07-20T05:07:01.586Z,99.90
2018-07-20T05:09:30.071Z,99.90
2018-07-20T05:11:58.589Z,99.90
2018-07-20T05:14:27.086Z,99.90
2018-07-20T05:16:55.540Z,99.90
2018-07-20T05:19:24.019Z,99.90
2018-07-20T05:21:52.458Z,99.90
2018-07-20T05:26:49.110Z,99.90
2018-07-20T05:29:17.606Z,99.90
2018-07-20T05:31:46.050Z,99.90
2018-07-20T05:34:14.529Z,99.90
2018-07-20T05:36:42.971Z,99.90
2018-07-20T05:39:12.183Z,99.90
2018-07-20T05:41:40.806Z,99.90
2018-07-20T05:44:09.275Z,99.90
2018-07-20T05:46:37.777Z,99.90
2018-07-20T05:49:06.340Z,99.90
2018-07-20T05:51:34.986Z,99.90
2018-07-20T05:54:03.706Z,99.90
2018-07-20T05:56:32.222Z,99.90
2018-07-20T06:01:29.033Z,99.90
2018-07-20T06:03:57.566Z,99.90
2018-07-20T06:06:26.303Z,99.90
2018-07-20T06:08:54.745Z,99.90
2018-07-20T06:11:23.337Z,99.90
2018-07-20T06:13:52.045Z,99.90
2018-07-20T06:16:20.477Z,99.90
2018-07-20T06:18:48.958Z,99.90
2018-07-20T06:21:17.393Z,99.90
2018-07-20T06:23:45.911Z,99.90
2018-07-20T06:28:42.594Z,99.90
2018-07-20T06:31:11.131Z,99.90
2018-07-20T06:33:39.590Z,99.90
2018-07-20T06:36:08.265Z,99.90
2018-07-20T06:38:36.805Z,99.90
2018-07-20T06:43:33.694Z,99.10
2018-07-20T06:46:02.162Z,98.30
2018-07-20T06:50:58.931Z,97.00
2018-07-20T06:53:27.418Z,97.00
2018-07-20T06:55:55.912Z,96.10
2018-07-20T06:58:24.532Z,96.30
2018-07-20T07:00:52.982Z,95.70
2018-07-20T07:03:21.741Z,95.70
2018-07-20T07:05:50.518Z,95.50
2018-07-20T07:08:19.061Z,95.20
2018-07-20T07:10:47.454Z,94.80
2018-07-20T07:13:15.897Z,94.10
2018-07-20T07:15:44.557Z,93.50
2018-07-20T07:18:13.356Z,93.50
2018-07-20T07:20:42.177Z,93.80
2018-07-20T07:23:10.669Z,93.70
2018-07-20T07:25:39.295Z,92.60
2018-07-20T07:28:07.771Z,92.60
2018-07-20T07:30:36.309Z,92.10
2018-07-20T07:33:04.779Z,91.60
2018-07-20T07:35:33.333Z,91.30
2018-07-20T07:38:01.769Z,91.10
2018-07-20T07:42:58.438Z,90.50
2018-07-20T07:45:26.997Z,89.80
2018-07-20T07:47:55.656Z,90.20
2018-07-20T07:50:24.162Z,89.40
2018-07-20T07:52:52.645Z,88.10
2018-07-20T07:55:21.180Z,87.80
2018-07-20T07:57:49.732Z,86.70
2018-07-20T08:00:18.254Z,87.20
2018-07-20T08:02:46.794Z,86.60
2018-07-20T08:07:43.523Z,84.80
2018-07-20T08:10:12.269Z,82.90
2018-07-20T08:12:41.414Z,82.20
2018-07-20T08:15:10.076Z,82.50
2018-07-20T08:17:38.608Z,81.90
2018-07-20T08:20:07.291Z,82.20
2018-07-20T08:22:35.779Z,80.70
2018-07-20T08:25:04.498Z,80.20
2018-07-20T08:27:33.381Z,79.30
2018-07-20T08:30:02.308Z,79.00
2018-07-20T08:32:31.339Z,76.40
2018-07-20T08:35:00.004Z,78.60
2018-07-20T08:37:28.655Z,79.00
2018-07-20T08:39:57.270Z,78.10
2018-07-20T08:44:53.963Z,77.80
2018-07-20T08:47:22.482Z,77.50
2018-07-20T08:49:51.403Z,74.60
2018-07-20T08:54:48.054Z,72.20
2018-07-20T08:57:16.493Z,71.80
2018-07-20T08:59:45.002Z,70.70
2018-07-20T09:02:13.468Z,71.10
2018-07-20T09:04:42.007Z,70.80
2018-07-20T09:07:10.778Z,68.50
2018-07-20T09:09:39.489Z,69.30
2018-07-20T09:12:08.444Z,68.50
2018-07-20T09:14:37.141Z,67.30
2018-07-20T09:17:05.866Z,64.80
2018-07-20T09:19:34.473Z,65.20
2018-07-20T09:22:03.467Z,64.30
2018-07-20T09:24:32.447Z,63.00
2018-07-20T09:27:00.890Z,61.30
2018-07-20T09:29:29.396Z,61.30
2018-07-20T09:31:58.313Z,62.00
2018-07-20T09:34:26.788Z,61.10
2018-07-20T09:36:55.181Z,60.20
2018-07-20T09:39:23.640Z,58.50
2018-07-20T09:41:52.069Z,58.40
2018-07-20T09:44:21.276Z,57.60
2018-07-20T09:46:50.070Z,57.70
2018-07-20T09:49:18.680Z,57.10
2018-07-20T09:51:47.412Z,54.80
2018-07-20T09:54:15.837Z,55.50
2018-07-20T09:56:44.649Z,55.90
2018-07-20T09:59:13.612Z,55.10
2018-07-20T10:01:42.215Z,55.50
2018-07-20T10:04:10.717Z,54.80
2018-07-20T10:06:39.345Z,53.70
2018-07-20T10:09:10.176Z,53.70
2018-07-20T10:11:38.657Z,51.90
2018-07-20T10:14:07.344Z,53.20
2018-07-20T10:16:36.587Z,52.30
2018-07-20T10:19:05.595Z,51.50
2018-07-20T10:21:34.648Z,51.00
2018-07-20T10:24:03.165Z,50.60
2018-07-20T10:26:31.622Z,51.10
2018-07-20T10:29:00.695Z,49.40
2018-07-20T10:31:29.539Z,48.70
2018-07-20T10:33:57.996Z,49.10
2018-07-20T10:36:26.522Z,48.30
2018-07-20T10:41:23.207Z,48.90
2018-07-20T10:43:51.748Z,47.40
2018-07-20T10:46:20.377Z,47.80
2018-07-20T10:48:48.973Z,48.30
2018-07-20T10:51:17.413Z,47.90
2018-07-20T10:56:14.147Z,47.50
2018-07-20T10:58:42.615Z,48.40
2018-07-20T11:01:11.093Z,47.80
2018-07-20T11:03:39.760Z,48.40
2018-07-20T11:06:08.592Z,46.50
2018-07-20T11:08:37.086Z,45.80
2018-07-20T11:11:05.784Z,46.50
2018-07-20T11:13:34.623Z,46.40
2018-07-20T11:16:03.247Z,45.40
2018-07-20T11:21:00.230Z,44.20
2018-07-20T11:23:28.846Z,45.00
2018-07-20T11:25:57.352Z,44.40
2018-07-20T11:28:26.058Z,44.40
2018-07-20T11:35:51.306Z,43.60
2018-07-20T11:38:19.787Z,43.60
2018-07-20T11:40:48.284Z,44.60
2018-07-20T11:43:17.232Z,44.00
2018-07-20T11:45:45.971Z,44.50
2018-07-20T11:48:14.497Z,43.30
2018-07-20T11:50:43.165Z,42.80
2018-07-20T11:53:11.698Z,43.20
2018-07-20T11:55:40.498Z,43.30
2018-07-20T11:58:09.234Z,42.50
2018-07-20T12:00:37.773Z,42.40
2018-07-20T12:03:06.315Z,42.10
2018-07-20T12:05:34.942Z,42.10
2018-07-20T12:08:04.414Z,42.00
2018-07-20T12:13:01.318Z,41.50
2018-07-20T12:15:30.174Z,41.30
2018-07-20T12:17:58.874Z,41.30
2018-07-20T12:20:27.377Z,41.30
2018-07-20T12:22:55.815Z,41.40
2018-07-20T12:25:24.370Z,40.30
2018-07-20T12:27:53.041Z,41.60
2018-07-20T12:30:21.520Z,42.20
2018-07-20T12:32:49.971Z,42.40
2018-07-20T12:35:18.457Z,42.50
2018-07-20T12:37:46.937Z,41.90
2018-07-20T12:40:15.498Z,42.00
2018-07-20T12:42:44.184Z,40.90
2018-07-20T12:45:12.669Z,41.30
2018-07-20T12:47:41.127Z,42.20
2018-07-20T12:52:38.034Z,42.20
2018-07-20T12:55:06.572Z,42.50
2018-07-20T13:00:03.524Z,41.40
2018-07-20T13:02:32.111Z,41.00
2018-07-20T13:05:00.691Z,40.80
2018-07-20T13:07:29.202Z,41.60
2018-07-20T13:09:58.269Z,41.70
2018-07-20T13:12:26.763Z,41.50
2018-07-20T13:17:24.484Z,42.60
2018-07-20T13:19:53.485Z,43.00
2018-07-20T13:22:22.071Z,43.20
2018-07-20T13:24:50.707Z,42.60
2018-07-20T13:29:47.491Z,42.30
2018-07-20T13:32:16.211Z,42.10
2018-07-20T13:34:44.733Z,42.10
2018-07-20T13:39:41.430Z,43.20
2018-07-20T13:42:09.958Z,42.40
2018-07-20T13:47:06.993Z,42.70
2018-07-20T13:49:35.544Z,42.70
2018-07-20T13:52:04.093Z,43.00
2018-07-20T13:57:00.895Z,43.20
2018-07-20T13:59:29.374Z,42.50
2018-07-20T14:01:57.834Z,43.20
2018-07-20T14:04:26.458Z,42.80
2018-07-20T14:06:55.233Z,42.60
2018-07-20T14:09:23.722Z,43.30
2018-07-20T14:11:52.254Z,42.30
2018-07-20T14:14:21.127Z,42.90
2018-07-20T14:16:49.901Z,42.50
2018-07-20T14:19:18.699Z,43.00
2018-07-20T14:21:47.174Z,42.40
2018-07-20T14:24:16.166Z,42.00
2018-07-20T14:26:44.906Z,42.10
2018-07-20T14:29:13.479Z,42.40
2018-07-20T14:31:42.440Z,42.90
2018-07-20T14:34:10.796Z,42.00
2018-07-20T14:36:39.629Z,43.10
2018-07-20T14:39:10.830Z,42.80
2018-07-20T14:41:39.620Z,42.30
2018-07-20T14:44:08.074Z,42.90
2018-07-20T14:46:36.646Z,42.00
2018-07-20T14:49:05.577Z,42.60
2018-07-20T14:51:34.161Z,42.40
2018-07-20T14:54:02.676Z,42.40
2018-07-20T14:58:59.720Z,42.30
2018-07-20T15:01:28.470Z,43.00
2018-07-20T15:03:56.947Z,42.30
2018-07-20T15:06:25.416Z,42.80
2018-07-20T15:08:54.592Z,41.70
2018-07-20T15:11:23.078Z,42.70
2018-07-20T15:13:51.569Z,42.90
2018-07-20T15:16:20.103Z,42.00
2018-07-20T15:18:48.600Z,42.00
2018-07-20T15:21:17.062Z,42.20
2018-07-20T15:23:45.523Z,42.00
2018-07-20T15:26:14.039Z,41.80
2018-07-20T15:28:42.546Z,41.60
2018-07-20T15:31:11.100Z,42.10
2018-07-20T15:36:07.829Z,42.40
2018-07-20T15:38:36.306Z,41.80
2018-07-20T15:41:04.836Z,42.20
2018-07-20T15:43:33.357Z,42.80
2018-07-20T15:46:06.043Z,43.00
2018-07-20T15:48:30.326Z,42.80
2018-07-20T15:50:58.909Z,42.20
2018-07-20T15:53:42.385Z,41.80
2018-07-20T15:55:55.894Z,41.80
2018-07-20T15:58:24.493Z,41.50
2018-07-20T16:00:53.022Z,41.40
2018-07-20T16:03:21.545Z,41.60
2018-07-20T16:05:50.101Z,41.60
2018-07-20T16:08:18.990Z,41.70
2018-07-20T16:10:47.474Z,41.70
2018-07-20T16:13:16.854Z,42.00
2018-07-20T16:15:45.296Z,41.60
2018-07-20T16:18:13.846Z,42.10
2018-07-20T16:20:42.334Z,41.80
2018-07-20T16:23:10.821Z,42.20
2018-07-20T16:25:39.442Z,42.20
2018-07-20T16:28:07.893Z,42.20
2018-07-20T16:30:36.457Z,42.50
2018-07-20T16:33:04.986Z,42.30
2018-07-20T16:35:33.457Z,42.00
2018-07-20T16:38:01.967Z,42.40
2018-07-20T16:40:30.515Z,42.40
2018-07-20T16:42:59.577Z,42.60
2018-07-20T16:45:28.163Z,41.80
2018-07-20T16:47:56.730Z,42.70
2018-07-20T16:50:25.380Z,41.70
2018-07-20T16:52:53.899Z,42.10
2018-07-20T16:55:22.402Z,41.80
2018-07-20T16:57:50.933Z,42.00
2018-07-20T17:00:19.451Z,42.30
2018-07-20T17:02:48.063Z,42.10
2018-07-20T17:05:16.545Z,42.30
2018-07-20T17:07:45.059Z,42.30
2018-07-20T17:10:15.310Z,42.30
2018-07-20T17:12:43.896Z,42.30
2018-07-20T17:15:12.515Z,42.30
2018-07-20T17:17:41.225Z,42.80
2018-07-20T17:20:09.954Z,42.00
2018-07-20T17:22:38.455Z,42.30
2018-07-20T17:25:07.002Z,42.40
2018-07-20T17:27:35.518Z,42.30
2018-07-20T17:30:04.289Z,42.50
2018-07-20T17:32:32.800Z,42.70
2018-07-20T17:35:01.255Z,43.00
2018-07-20T17:37:29.817Z,43.20
2018-07-20T17:39:58.314Z,43.20
2018-07-20T17:42:27.463Z,43.40
2018-07-20T17:44:56.034Z,43.30
2018-07-20T17:47:24.504Z,43.60
2018-07-20T17:49:53.034Z,44.30
2018-07-20T17:52:21.560Z,43.80
2018-07-20T17:54:50.206Z,44.30
2018-07-20T17:57:19.629Z,44.30
2018-07-20T17:59:48.161Z,44.30
2018-07-20T18:04:45.048Z,45.00
2018-07-20T18:07:13.603Z,45.60
2018-07-20T18:09:42.253Z,46.20
2018-07-20T18:12:10.839Z,46.90
2018-07-20T18:14:39.406Z,46.60
2018-07-20T18:17:07.945Z,46.80
2018-07-20T18:22:04.783Z,47.20
2018-07-20T18:24:33.351Z,47.50
2018-07-20T18:27:01.911Z,47.10
2018-07-20T18:29:30.531Z,47.20
2018-07-20T18:31:59.230Z,47.00
2018-07-20T18:34:28.246Z,47.10
2018-07-20T18:36:56.956Z,47.00
2018-07-20T18:39:25.445Z,46.90
2018-07-20T18:41:53.925Z,47.20
2018-07-20T18:44:22.459Z,47.20
2018-07-20T18:49:19.094Z,47.40
2018-07-20T18:51:48.504Z,47.90
2018-07-20T18:54:17.018Z,48.80
2018-07-20T18:56:45.599Z,48.90
2018-07-20T18:59:14.163Z,48.70
2018-07-20T19:04:11.348Z,47.70
2018-07-20T19:06:40.323Z,49.30
2018-07-20T19:09:10.587Z,49.10
2018-07-20T19:11:39.151Z,48.40
2018-07-20T19:14:07.667Z,49.70
2018-07-20T19:16:36.226Z,51.00
2018-07-20T19:19:04.857Z,49.90
2018-07-20T19:21:33.259Z,49.60
2018-07-20T19:24:01.830Z,49.80
2018-07-20T19:26:30.424Z,50.90
2018-07-20T19:28:59.131Z,51.00
2018-07-20T19:31:27.719Z,51.60
2018-07-20T19:33:56.298Z,52.40
2018-07-20T19:36:24.926Z,52.30
2018-07-20T19:38:53.535Z,52.70
2018-07-20T19:41:22.075Z,52.60
2018-07-20T19:43:50.610Z,52.10
2018-07-20T19:48:47.358Z,52.20
2018-07-20T19:51:16.086Z,52.30
2018-07-20T19:53:44.764Z,52.50
2018-07-20T19:56:13.320Z,52.60
2018-07-20T19:58:42.028Z,53.50
2018-07-20T20:01:10.691Z,54.10
2018-07-20T20:03:39.482Z,55.50
2018-07-20T20:06:08.134Z,56.00
2018-07-20T20:08:37.712Z,56.40
2018-07-20T20:11:06.386Z,56.50
2018-07-20T20:13:34.971Z,56.60
2018-07-20T20:16:03.676Z,56.60
2018-07-20T20:18:32.255Z,56.70
2018-07-20T20:21:00.776Z,56.30
2018-07-20T20:23:29.278Z,56.70
2018-07-20T20:28:26.252Z,57.00
2018-07-20T20:30:54.807Z,57.30
2018-07-20T20:33:23.291Z,57.70
2018-07-20T20:35:51.738Z,57.40
2018-07-20T20:38:20.377Z,58.10
2018-07-20T20:43:17.110Z,57.60
2018-07-20T20:45:45.647Z,58.30
2018-07-20T20:48:14.248Z,59.10
2018-07-20T20:50:42.918Z,59.20
2018-07-20T20:53:11.402Z,59.80
2018-07-20T20:55:39.867Z,60.10
2018-07-20T20:58:08.447Z,61.10
2018-07-20T21:00:36.957Z,61.40
2018-07-20T21:03:05.641Z,61.50
2018-07-20T21:05:34.834Z,62.60
2018-07-20T21:08:03.383Z,63.20
2018-07-20T21:10:32.054Z,64.20
2018-07-20T21:13:00.511Z,62.30
2018-07-20T21:15:30.035Z,62.40
2018-07-20T21:20:27.006Z,63.30
2018-07-20T21:25:23.930Z,64.00
2018-07-20T21:27:52.562Z,64.40
2018-07-20T21:30:21.062Z,65.30
2018-07-20T21:32:49.615Z,65.50
2018-07-20T21:37:46.235Z,64.40
2018-07-20T21:40:14.726Z,66.40
2018-07-20T21:42:43.210Z,65.40
2018-07-20T21:45:11.712Z,66.00
2018-07-20T21:47:40.329Z,67.10
2018-07-20T21:50:09.110Z,67.80
2018-07-20T21:52:37.634Z,65.40
2018-07-20T21:55:06.297Z,64.50
2018-07-20T21:57:34.741Z,65.80
2018-07-20T22:00:03.657Z,65.50
2018-07-20T22:02:32.242Z,64.50
2018-07-20T22:05:00.722Z,64.00
2018-07-20T22:07:29.192Z,65.80
2018-07-20T22:09:57.636Z,66.60
2018-07-20T22:12:26.066Z,66.00
2018-07-20T22:14:54.590Z,67.20
2018-07-20T22:17:23.164Z,66.90
2018-07-20T22:19:51.698Z,67.90
2018-07-20T22:22:20.374Z,68.10
2018-07-20T22:24:49.351Z,69.00
2018-07-20T22:29:45.998Z,69.60
2018-07-20T22:32:14.515Z,69.80
2018-07-20T22:34:43.023Z,68.80
2018-07-20T22:37:11.594Z,68.60
2018-07-20T22:39:40.146Z,67.80
2018-07-20T22:42:08.683Z,68.20
2018-07-20T22:44:37.187Z,69.90
2018-07-20T22:47:06.751Z,70.20
2018-07-20T22:49:35.239Z,71.30
2018-07-20T22:52:04.023Z,72.40
2018-07-20T22:54:32.502Z,72.10
2018-07-20T22:57:01.209Z,72.40
2018-07-20T22:59:29.861Z,73.30
2018-07-20T23:01:58.322Z,72.90
2018-07-20T23:04:26.766Z,73.30
2018-07-20T23:06:55.238Z,74.40
2018-07-20T23:09:23.815Z,73.90
2018-07-20T23:11:52.350Z,74.20
2018-07-20T23:14:21.056Z,74.70
2018-07-20T23:16:49.630Z,75.40
2018-07-20T23:19:18.287Z,76.30
2018-07-20T23:21:46.803Z,76.20
2018-07-20T23:24:16.205Z,77.10
2018-07-20T23:26:44.733Z,78.30
2018-07-20T23:29:13.378Z,78.00
2018-07-20T23:31:41.879Z,77.70
2018-07-20T23:34:16.742Z,78.30
2018-07-20T23:36:45.493Z,77.10
2018-07-20T23:39:13.965Z,79.40
2018-07-20T23:41:42.417Z,79.10
2018-07-20T23:44:10.989Z,80.30
2018-07-20T23:46:39.594Z,81.40
2018-07-20T23:49:08.070Z,83.20
2018-07-20T23:51:36.561Z,83.80
2018-07-20T23:54:05.022Z,84.40
2018-07-20T23:56:33.527Z,85.10
2018-07-20T23:59:01.943Z,83.80
